createdAt,value
2023-04-26T00:00:29.303Z,100497.41
2023-04-26T00:01:31.576Z,100493.84
2023-04-26T00:02:34.408Z,100486.03
2023-04-26T00:03:37.995Z,100493.91
2023-04-26T00:04:40.971Z,100495.72
2023-04-26T00:05:43.470Z,100493.09
2023-04-26T00:06:46.000Z,100488.69
2023-04-26T00:07:50.441Z,100491.25
2023-04-26T00:08:52.834Z,100492.22
2023-04-26T00:09:55.609Z,100496.66
2023-04-26T00:10:57.932Z,100495.81
2023-04-26T00:12:00.547Z,100495.72
2023-04-26T00:13:03.453Z,100496.59
2023-04-26T00:14:05.628Z,100501.91
2023-04-26T00:15:08.665Z,100499.34
2023-04-26T00:16:10.916Z,100501.97
2023-04-26T00:17:13.120Z,100501.97
2023-04-26T00:18:15.457Z,100497.69
2023-04-26T00:19:18.365Z,100511.06
2023-04-26T00:20:20.530Z,100507.50
2023-04-26T00:21:22.706Z,100507.44
2023-04-26T00:22:25.583Z,100511.69
2023-04-26T00:23:27.932Z,100506.50
2023-04-26T00:24:30.316Z,100511.94
2023-04-26T00:25:32.667Z,100505.09
2023-04-26T00:26:35.084Z,100508.56
2023-04-26T00:27:37.333Z,100513.00
2023-04-26T00:28:39.830Z,100508.59
2023-04-26T00:29:42.346Z,100506.94
2023-04-26T00:31:02.774Z,100507.78
2023-04-26T00:32:05.832Z,100514.78
2023-04-26T00:33:08.216Z,100511.31
2023-04-26T00:34:10.610Z,100514.03
2023-04-26T00:35:13.006Z,100514.09
2023-04-26T00:36:19.179Z,100514.97
2023-04-26T00:37:21.940Z,100507.13
2023-04-26T00:38:24.427Z,100515.97
2023-04-26T00:39:27.232Z,100508.94
2023-04-26T00:40:30.921Z,100514.25
2023-04-26T00:41:33.138Z,100505.34
2023-04-26T00:42:35.480Z,100510.63
2023-04-26T00:43:38.323Z,100512.50
2023-04-26T00:44:40.759Z,100516.03
2023-04-26T00:45:43.153Z,100513.50
2023-04-26T00:46:46.310Z,100525.06
2023-04-26T00:47:48.557Z,100518.03
2023-04-26T00:48:52.103Z,100525.09
2023-04-26T00:49:54.592Z,100517.16
2023-04-26T00:50:57.210Z,100526.00
2023-04-26T00:51:59.823Z,100518.91
2023-04-26T00:53:02.939Z,100522.38
2023-04-26T00:54:05.417Z,100522.50
2023-04-26T00:55:08.910Z,100524.22
2023-04-26T00:56:12.356Z,100525.06
2023-04-26T00:57:14.917Z,100518.13
2023-04-26T00:58:20.662Z,100528.84
2023-04-26T00:59:23.416Z,100532.34
2023-04-26T01:00:26.305Z,100527.06
2023-04-26T01:01:29.349Z,100524.41
2023-04-26T01:02:31.637Z,100520.81
2023-04-26T01:03:34.616Z,100525.19
2023-04-26T01:04:37.380Z,100525.31
2023-04-26T01:05:39.840Z,100523.63
2023-04-26T01:06:42.410Z,100524.47
2023-04-26T01:07:46.047Z,100524.56
2023-04-26T01:08:51.796Z,100519.25
2023-04-26T01:09:56.646Z,100523.63
2023-04-26T01:10:59.585Z,100524.41
2023-04-26T01:12:02.674Z,100524.44
2023-04-26T01:13:05.451Z,100521.69
2023-04-26T01:14:08.563Z,100518.41
2023-04-26T01:15:11.491Z,100516.69
2023-04-26T01:16:15.817Z,100524.56
2023-04-26T01:17:18.170Z,100524.59
2023-04-26T01:18:20.827Z,100522.00
2023-04-26T01:19:23.442Z,100526.47
2023-04-26T01:23:13.085Z,100522.16
2023-04-26T01:24:15.706Z,100532.78
2023-04-26T01:25:18.735Z,100536.38
2023-04-26T01:26:21.237Z,100533.66
2023-04-26T01:27:23.449Z,100543.41
2023-04-26T01:28:25.739Z,100534.56
2023-04-26T01:29:28.185Z,100532.78
2023-04-26T01:30:32.399Z,100535.50
2023-04-26T01:31:38.651Z,100531.09
2023-04-26T01:32:40.920Z,100526.84
2023-04-26T01:33:43.403Z,100539.31
2023-04-26T01:34:45.615Z,100539.25
2023-04-26T01:35:47.790Z,100536.56
2023-04-26T01:36:50.224Z,100542.69
2023-04-26T01:37:52.449Z,100533.00
2023-04-26T01:38:56.436Z,100528.53
2023-04-26T01:39:58.861Z,100534.78
2023-04-26T01:41:01.487Z,100538.38
2023-04-26T01:42:05.397Z,100541.91
2023-04-26T01:43:07.761Z,100540.97
2023-04-26T01:44:09.946Z,100534.81
2023-04-26T01:45:12.330Z,100548.06
2023-04-26T01:46:33.282Z,100538.44
2023-04-26T01:47:35.877Z,100540.25
2023-04-26T01:48:38.256Z,100546.34
2023-04-26T01:49:41.621Z,100547.13
2023-04-26T01:50:43.910Z,100545.31
2023-04-26T01:51:48.830Z,100555.06
2023-04-26T01:52:51.585Z,100545.28
2023-04-26T01:53:54.517Z,100549.63
2023-04-26T01:54:57.429Z,100547.88
2023-04-26T01:56:03.242Z,100549.56
2023-04-26T01:57:06.535Z,100551.31
2023-04-26T01:58:08.746Z,100550.41
2023-04-26T01:59:10.922Z,100556.63
2023-04-26T02:00:13.385Z,100542.44
2023-04-26T02:01:15.780Z,100549.50
2023-04-26T02:02:21.332Z,100551.38
2023-04-26T02:03:23.890Z,100548.69
2023-04-26T02:04:26.481Z,100548.66
2023-04-26T02:05:28.696Z,100545.06
2023-04-26T02:06:32.381Z,100543.22
2023-04-26T02:07:34.969Z,100544.91
2023-04-26T02:08:37.230Z,100550.25
2023-04-26T02:09:39.490Z,100546.72
2023-04-26T02:10:41.896Z,100542.19
2023-04-26T02:11:44.415Z,100545.56
2023-04-26T02:12:46.754Z,100549.22
2023-04-26T02:13:49.580Z,100549.97
2023-04-26T02:14:56.439Z,100548.16
2023-04-26T02:15:59.463Z,100545.47
2023-04-26T02:17:02.168Z,100549.91
2023-04-26T02:18:04.595Z,100554.34
2023-04-26T02:19:10.879Z,100552.53
2023-04-26T02:20:16.592Z,100551.72
2023-04-26T02:21:19.640Z,100544.66
2023-04-26T02:22:25.190Z,100551.72
2023-04-26T02:23:27.437Z,100548.19
2023-04-26T02:24:30.960Z,100552.56
2023-04-26T02:25:34.239Z,100552.56
2023-04-26T02:26:36.439Z,100549.94
2023-04-26T02:27:39.045Z,100549.19
2023-04-26T02:28:42.231Z,100544.84
2023-04-26T02:29:45.058Z,100546.63
2023-04-26T02:30:48.144Z,100555.47
2023-04-26T02:31:50.535Z,100548.34
2023-04-26T02:32:54.612Z,100554.50
2023-04-26T02:33:57.072Z,100542.06
2023-04-26T02:34:59.357Z,100549.13
2023-04-26T02:36:06.162Z,100555.31
2023-04-26T02:37:09.038Z,100550.81
2023-04-26T02:38:11.265Z,100546.38
2023-04-26T02:39:13.965Z,100553.44
2023-04-26T02:40:16.206Z,100550.88
2023-04-26T02:41:18.599Z,100547.53
2023-04-26T02:42:20.994Z,100551.78
2023-04-26T02:43:23.371Z,100547.28
2023-04-26T02:44:25.911Z,100549.03
2023-04-26T02:45:28.186Z,100547.38
2023-04-26T02:46:30.705Z,100554.47
2023-04-26T02:47:33.038Z,100558.97
2023-04-26T02:48:35.600Z,100555.47
2023-04-26T02:49:37.953Z,100554.63
2023-04-26T02:50:40.173Z,100551.19
2023-04-26T02:51:42.424Z,100553.88
2023-04-26T02:52:44.700Z,100554.72
2023-04-26T02:53:47.078Z,100552.16
2023-04-26T02:54:49.460Z,100555.66
2023-04-26T02:55:51.973Z,100561.00
2023-04-26T02:56:55.378Z,100559.22
2023-04-26T02:57:57.795Z,100558.22
2023-04-26T02:59:00.281Z,100553.75
2023-04-26T03:00:05.062Z,100551.06
2023-04-26T03:01:07.343Z,100552.06
2023-04-26T03:02:09.609Z,100560.88
2023-04-26T03:03:12.478Z,100558.22
2023-04-26T03:04:16.023Z,100557.41
2023-04-26T03:05:20.275Z,100554.84
2023-04-26T03:06:22.577Z,100561.09
2023-04-26T03:07:24.860Z,100562.91
2023-04-26T03:08:27.123Z,100560.25
2023-04-26T03:09:29.361Z,100559.31
2023-04-26T03:10:31.886Z,100563.78
2023-04-26T03:11:34.652Z,100554.94
2023-04-26T03:12:37.799Z,100565.66
2023-04-26T03:13:39.976Z,100558.41
2023-04-26T03:14:43.115Z,100560.16
2023-04-26T03:15:46.641Z,100565.47
2023-04-26T03:16:48.963Z,100562.81
2023-04-26T03:17:52.236Z,100569.19
2023-04-26T03:18:54.824Z,100563.75
2023-04-26T03:19:57.649Z,100572.69
2023-04-26T03:21:00.308Z,100565.44
2023-04-26T03:22:02.640Z,100566.31
2023-04-26T03:23:05.247Z,100573.50
2023-04-26T03:24:07.799Z,100564.91
2023-04-26T03:25:10.200Z,100573.84
2023-04-26T03:26:12.965Z,100569.50
2023-04-26T03:27:15.937Z,100572.91
2023-04-26T03:28:18.177Z,100575.47
2023-04-26T03:29:20.611Z,100575.47
2023-04-26T03:30:22.832Z,100574.81
2023-04-26T03:31:25.501Z,100574.09
2023-04-26T03:32:27.754Z,100569.59
2023-04-26T03:33:31.828Z,100572.81
2023-04-26T03:34:34.104Z,100575.25
2023-04-26T03:35:36.949Z,100578.88
2023-04-26T03:36:40.034Z,100572.88
2023-04-26T03:37:42.955Z,100576.50
2023-04-26T03:38:48.147Z,100579.16
2023-04-26T03:39:53.471Z,100579.31
2023-04-26T03:40:58.144Z,100583.72
2023-04-26T03:42:01.397Z,100581.16
2023-04-26T03:43:03.734Z,100575.97
2023-04-26T03:44:06.718Z,100586.56
2023-04-26T03:45:09.414Z,100575.03
2023-04-26T03:46:11.701Z,100581.06
2023-04-26T03:47:16.010Z,100586.47
2023-04-26T03:48:18.353Z,100576.06
2023-04-26T03:49:21.236Z,100581.41
2023-04-26T03:50:23.481Z,100578.84
2023-04-26T03:51:27.670Z,100581.38
2023-04-26T03:52:29.908Z,100575.97
2023-04-26T03:53:32.314Z,100579.31
2023-04-26T03:54:35.047Z,100586.38
2023-04-26T03:55:37.814Z,100570.50
2023-04-26T03:56:41.509Z,100582.97
2023-04-26T03:57:43.868Z,100588.28
2023-04-26T03:58:46.655Z,100582.16
2023-04-26T03:59:48.904Z,100585.75
2023-04-26T04:00:52.440Z,100585.63
2023-04-26T04:01:55.205Z,100590.09
2023-04-26T04:02:57.757Z,100587.53
2023-04-26T04:04:02.230Z,100590.28
2023-04-26T04:05:05.649Z,100587.38
2023-04-26T04:06:08.055Z,100585.63
2023-04-26T04:07:10.717Z,100587.38
2023-04-26T04:08:12.924Z,100587.34
2023-04-26T04:09:15.994Z,100579.50
2023-04-26T04:10:18.380Z,100590.00
2023-04-26T04:11:23.198Z,100591.78
2023-04-26T04:12:26.573Z,100586.41
2023-04-26T04:13:28.934Z,100582.00
2023-04-26T04:14:31.351Z,100588.09
2023-04-26T04:15:33.593Z,100582.78
2023-04-26T04:16:37.890Z,100576.69
2023-04-26T04:17:40.691Z,100589.91
2023-04-26T04:18:43.535Z,100581.09
2023-04-26T04:19:46.324Z,100582.78
2023-04-26T04:20:48.557Z,100584.38
2023-04-26T04:21:51.795Z,100586.03
2023-04-26T04:22:55.512Z,100588.63
2023-04-26T04:23:57.941Z,100585.19
2023-04-26T04:25:00.811Z,100586.13
2023-04-26T04:26:03.378Z,100599.53
2023-04-26T04:27:05.852Z,100595.09
2023-04-26T04:28:09.001Z,100590.44
2023-04-26T04:29:11.940Z,100603.72
2023-04-26T04:30:14.577Z,100595.84
2023-04-26T04:31:17.548Z,100595.00
2023-04-26T04:32:20.587Z,100600.38
2023-04-26T04:33:39.305Z,100596.81
2023-04-26T04:34:43.158Z,100602.09
2023-04-26T04:35:45.477Z,100597.50
2023-04-26T04:36:47.988Z,100602.75
2023-04-26T04:37:50.703Z,100597.56
2023-04-26T04:38:53.677Z,100598.47
2023-04-26T04:39:56.494Z,100598.47
2023-04-26T04:41:00.713Z,100607.28
2023-04-26T04:42:03.126Z,100608.16
2023-04-26T04:43:05.991Z,100603.72
2023-04-26T04:44:08.475Z,100610.88
2023-04-26T04:45:11.060Z,100618.09
2023-04-26T04:46:15.488Z,100618.22
2023-04-26T04:47:17.882Z,100614.69
2023-04-26T04:48:21.599Z,100614.59
2023-04-26T04:49:24.958Z,100614.59
2023-04-26T04:50:28.303Z,100615.47
2023-04-26T04:51:31.580Z,100620.84
2023-04-26T04:52:34.156Z,100621.81
2023-04-26T04:53:36.792Z,100618.31
2023-04-26T04:54:39.626Z,100619.25
2023-04-26T04:55:41.957Z,100628.09
2023-04-26T04:56:45.430Z,100628.06
2023-04-26T04:57:49.668Z,100625.31
2023-04-26T04:58:52.555Z,100624.34
2023-04-26T04:59:56.811Z,100626.94
2023-04-26T05:01:01.377Z,100634.97
2023-04-26T05:02:05.718Z,100633.25
2023-04-26T05:03:10.428Z,100632.31
2023-04-26T05:04:13.280Z,100632.47
2023-04-26T05:05:16.801Z,100636.78
2023-04-26T05:06:20.331Z,100635.00
2023-04-26T05:07:24.409Z,100636.78
2023-04-26T05:08:29.140Z,100640.28
2023-04-26T05:09:34.233Z,100638.59
2023-04-26T05:10:36.943Z,100640.34
2023-04-26T05:11:39.399Z,100635.00
2023-04-26T05:12:43.963Z,100646.28
2023-04-26T05:13:47.283Z,100642.56
2023-04-26T05:14:50.049Z,100641.56
2023-04-26T05:15:52.488Z,100644.31
2023-04-26T05:16:54.818Z,100639.03
2023-04-26T05:17:59.610Z,100645.25
2023-04-26T05:19:02.191Z,100644.25
2023-04-26T05:20:07.389Z,100648.56
2023-04-26T05:21:10.462Z,100643.28
2023-04-26T05:22:18.323Z,100653.03
2023-04-26T05:23:21.693Z,100651.25
2023-04-26T05:24:24.229Z,100649.41
2023-04-26T05:25:27.264Z,100646.88
2023-04-26T05:26:36.046Z,100646.75
2023-04-26T05:27:56.911Z,100650.28
2023-04-26T05:29:10.262Z,100652.94
2023-04-26T05:30:32.896Z,100659.16
2023-04-26T05:31:55.450Z,100654.81
2023-04-26T05:33:30.914Z,100656.03
2023-04-26T05:34:51.144Z,100654.19
2023-04-26T05:35:54.182Z,100651.44
2023-04-26T05:36:57.444Z,100654.09
2023-04-26T05:37:59.763Z,100660.22
2023-04-26T05:39:02.405Z,100654.88
2023-04-26T05:40:05.531Z,100658.38
2023-04-26T05:41:08.399Z,100651.34
2023-04-26T05:42:11.132Z,100668.97
2023-04-26T05:43:15.276Z,100663.09
2023-04-26T05:44:17.634Z,100663.13
2023-04-26T05:45:21.612Z,100649.03
2023-04-26T05:46:26.028Z,100658.81
2023-04-26T05:47:28.431Z,100669.31
2023-04-26T05:48:31.070Z,100662.44
2023-04-26T05:49:33.512Z,100661.63
2023-04-26T05:50:40.002Z,100657.31
2023-04-26T05:51:47.389Z,100666.03
2023-04-26T05:52:51.337Z,100661.50
2023-04-26T05:53:54.801Z,100660.44
2023-04-26T05:54:58.005Z,100667.38
2023-04-26T05:56:00.829Z,100658.53
2023-04-26T05:57:04.818Z,100662.06
2023-04-26T05:58:07.932Z,100663.75
2023-04-26T05:59:19.720Z,100669.78
2023-04-26T06:00:23.861Z,100662.78
2023-04-26T06:01:26.355Z,100670.66
2023-04-26T06:02:28.730Z,100672.22
2023-04-26T06:03:31.382Z,100672.03
2023-04-26T06:04:34.037Z,100669.38
2023-04-26T06:05:41.697Z,100672.06
2023-04-26T06:06:44.566Z,100674.63
2023-04-26T06:07:47.032Z,100671.94
2023-04-26T06:08:49.348Z,100668.19
2023-04-26T06:09:51.885Z,100673.16
2023-04-26T06:10:54.878Z,100674.38
2023-04-26T06:11:57.418Z,100673.94
2023-04-26T06:12:59.808Z,100665.41
2023-04-26T06:14:04.918Z,100670.84
2023-04-26T06:15:07.698Z,100674.25
2023-04-26T06:16:12.229Z,100669.72
2023-04-26T06:17:14.540Z,100660.88
2023-04-26T06:18:18.684Z,100669.28
2023-04-26T06:19:22.555Z,100660.03
2023-04-26T06:20:26.210Z,100673.94
2023-04-26T06:21:28.548Z,100679.47
2023-04-26T06:22:31.222Z,100667.13
2023-04-26T06:23:33.697Z,100663.75
2023-04-26T06:24:36.204Z,100661.41
2023-04-26T06:25:42.251Z,100667.97
2023-04-26T06:26:44.608Z,100671.97
2023-04-26T06:27:47.248Z,100677.28
2023-04-26T06:28:49.669Z,100677.44
2023-04-26T06:29:52.621Z,100670.06
2023-04-26T06:30:56.448Z,100669.38
2023-04-26T06:31:59.275Z,100671.16
2023-04-26T06:33:05.438Z,100673.56
2023-04-26T06:34:09.305Z,100674.97
2023-04-26T06:35:11.769Z,100672.88
2023-04-26T06:36:14.605Z,100663.19
2023-04-26T06:37:18.158Z,100664.97
2023-04-26T06:38:20.439Z,100665.19
2023-04-26T06:39:22.715Z,100668.44
2023-04-26T06:40:25.046Z,100667.13
2023-04-26T06:41:28.574Z,100669.41
2023-04-26T06:42:31.071Z,100675.25
2023-04-26T06:43:56.474Z,100672.22
2023-04-26T06:45:06.703Z,100675.25
2023-04-26T06:46:10.344Z,100675.66
2023-04-26T06:47:12.744Z,100675.72
2023-04-26T06:48:15.302Z,100676.13
2023-04-26T06:49:17.643Z,100675.66
2023-04-26T06:50:20.280Z,100665.88
2023-04-26T06:51:22.997Z,100671.53
2023-04-26T06:52:26.262Z,100673.19
2023-04-26T06:53:28.734Z,100679.81
2023-04-26T06:54:31.393Z,100676.09
2023-04-26T06:55:34.370Z,100684.25
2023-04-26T06:56:36.818Z,100680.13
2023-04-26T06:57:39.377Z,100675.91
2023-04-26T06:59:01.991Z,100678.63
2023-04-26T07:00:05.083Z,100681.06
2023-04-26T07:01:08.642Z,100686.75
2023-04-26T07:02:11.603Z,100691.50
2023-04-26T07:03:14.844Z,100687.94
2023-04-26T07:04:18.827Z,100690.44
2023-04-26T07:05:21.714Z,100689.66
2023-04-26T07:06:25.054Z,100687.38
2023-04-26T07:07:27.590Z,100687.38
2023-04-26T07:08:30.099Z,100690.44
2023-04-26T07:09:32.436Z,100688.75
2023-04-26T07:10:35.205Z,100681.09
2023-04-26T07:11:37.656Z,100678.19
2023-04-26T07:12:40.358Z,100687.59
2023-04-26T07:13:42.682Z,100689.69
2023-04-26T07:14:45.117Z,100685.56
2023-04-26T07:15:47.372Z,100674.09
2023-04-26T07:16:50.037Z,100682.28
2023-04-26T07:17:52.411Z,100681.66
2023-04-26T07:18:58.192Z,100690.16
2023-04-26T07:20:01.019Z,100684.69
2023-04-26T07:21:03.405Z,100691.53
2023-04-26T07:22:06.352Z,100687.66
2023-04-26T07:23:08.564Z,100688.94
2023-04-26T07:24:10.868Z,100691.34
2023-04-26T07:25:13.488Z,100679.97
2023-04-26T07:26:16.158Z,100684.56
2023-04-26T07:27:18.619Z,100687.22
2023-04-26T07:28:20.991Z,100692.50
2023-04-26T07:29:23.446Z,100694.41
2023-04-26T07:30:26.065Z,100690.63
2023-04-26T07:31:28.518Z,100696.34
2023-04-26T07:32:31.194Z,100689.97
2023-04-26T07:33:33.674Z,100690.38
2023-04-26T07:34:36.328Z,100689.88
2023-04-26T07:35:38.641Z,100694.00
2023-04-26T07:36:40.960Z,100690.19
2023-04-26T07:37:44.364Z,100685.06
2023-04-26T07:38:46.774Z,100699.47
2023-04-26T07:39:49.073Z,100679.03
2023-04-26T07:40:52.025Z,100692.28
2023-04-26T07:41:54.474Z,100689.88
2023-04-26T07:42:59.333Z,100688.97
2023-04-26T07:44:02.055Z,100693.69
2023-04-26T07:45:04.907Z,100693.41
2023-04-26T07:46:07.256Z,100697.41
2023-04-26T07:47:13.585Z,100684.50
2023-04-26T07:48:17.476Z,100686.94
2023-04-26T07:49:19.839Z,100694.31
2023-04-26T07:50:22.329Z,100686.50
2023-04-26T07:51:24.680Z,100679.97
2023-04-26T07:52:26.912Z,100688.63
2023-04-26T07:53:29.359Z,100690.84
2023-04-26T07:54:31.724Z,100693.16
2023-04-26T07:55:33.935Z,100699.16
2023-04-26T07:56:36.444Z,100693.06
2023-04-26T07:57:39.205Z,100694.75
2023-04-26T07:58:41.983Z,100695.59
2023-04-26T07:59:44.414Z,100692.31
2023-04-26T08:00:46.728Z,100705.19
2023-04-26T08:01:49.014Z,100696.50
2023-04-26T08:02:51.932Z,100698.06
2023-04-26T08:03:56.034Z,100692.94
2023-04-26T08:05:00.782Z,100700.56
2023-04-26T08:06:03.643Z,100693.91
2023-04-26T08:07:06.405Z,100693.13
2023-04-26T08:08:08.896Z,100702.94
2023-04-26T08:09:30.908Z,100691.47
2023-04-26T08:10:33.562Z,100697.25
2023-04-26T08:11:36.120Z,100695.75
2023-04-26T08:12:39.184Z,100697.88
2023-04-26T08:13:44.281Z,100694.47
2023-04-26T08:14:46.652Z,100696.66
2023-04-26T08:15:49.171Z,100707.84
2023-04-26T08:16:51.979Z,100697.25
2023-04-26T08:17:54.451Z,100695.50
2023-04-26T08:19:02.882Z,100694.97
2023-04-26T08:20:06.144Z,100685.53
2023-04-26T08:21:08.887Z,100694.38
2023-04-26T08:22:11.207Z,100698.53
2023-04-26T08:23:14.547Z,100696.63
2023-04-26T08:24:16.762Z,100695.69
2023-04-26T08:25:19.332Z,100688.72
2023-04-26T08:26:22.018Z,100686.06
2023-04-26T08:27:24.498Z,100688.97
2023-04-26T08:28:28.237Z,100692.94
2023-04-26T08:29:31.048Z,100691.28
2023-04-26T08:30:33.449Z,100679.91
2023-04-26T08:31:36.189Z,100683.19
2023-04-26T08:32:38.697Z,100691.41
2023-04-26T08:33:41.271Z,100682.09
2023-04-26T08:34:43.679Z,100687.53
2023-04-26T08:35:45.958Z,100692.72
2023-04-26T08:36:48.197Z,100685.81
2023-04-26T08:37:50.934Z,100692.53
2023-04-26T08:38:53.331Z,100694.88
2023-04-26T08:39:55.613Z,100685.56
2023-04-26T08:41:02.104Z,100693.16
2023-04-26T08:42:14.455Z,100705.81
2023-04-26T08:43:17.638Z,100705.28
2023-04-26T08:44:26.702Z,100704.88
2023-04-26T08:45:28.963Z,100700.44
2023-04-26T08:46:58.831Z,100700.66
2023-04-26T08:48:11.777Z,100704.75
2023-04-26T08:49:23.111Z,100701.88
2023-04-26T08:50:25.552Z,100705.25
2023-04-26T08:51:29.279Z,100707.25
2023-04-26T08:52:32.845Z,100700.50
2023-04-26T08:53:37.149Z,100707.03
2023-04-26T08:54:41.120Z,100704.97
2023-04-26T08:55:48.690Z,100698.97
2023-04-26T08:56:53.180Z,100702.13
2023-04-26T08:57:56.279Z,100698.50
2023-04-26T08:59:00.260Z,100708.00
2023-04-26T09:00:15.875Z,100712.50
2023-04-26T09:01:18.907Z,100701.13
2023-04-26T09:02:23.242Z,100719.41
2023-04-26T09:03:26.505Z,100729.81
2023-04-26T09:04:29.642Z,100729.03
2023-04-26T09:05:34.360Z,100729.78
2023-04-26T09:06:37.452Z,100733.00
2023-04-26T09:07:47.705Z,100735.31
2023-04-26T09:08:53.340Z,100727.81
2023-04-26T09:09:58.518Z,100726.97
2023-04-26T09:11:01.119Z,100725.47
2023-04-26T09:12:04.390Z,100720.00
2023-04-26T09:13:07.282Z,100727.34
2023-04-26T09:14:09.812Z,100720.41
2023-04-26T09:15:14.680Z,100721.63
2023-04-26T09:16:17.061Z,100721.97
2023-04-26T09:17:29.633Z,100715.84
2023-04-26T09:18:33.971Z,100710.75
2023-04-26T09:19:44.526Z,100711.22
2023-04-26T09:21:02.459Z,100716.31
2023-04-26T09:22:06.367Z,100708.81
2023-04-26T09:23:10.417Z,100708.47
2023-04-26T09:24:14.368Z,100705.78
2023-04-26T09:25:20.327Z,100707.69
2023-04-26T09:26:23.077Z,100716.66
2023-04-26T09:27:39.963Z,100710.41
2023-04-26T09:28:42.650Z,100717.38
2023-04-26T09:30:07.898Z,100718.50
2023-04-26T09:31:10.457Z,100710.91
2023-04-26T09:32:12.853Z,100718.16
2023-04-26T09:33:15.323Z,100709.78
2023-04-26T09:34:17.588Z,100714.94
2023-04-26T09:35:37.176Z,100713.94
2023-04-26T09:36:48.829Z,100716.06
2023-04-26T09:38:12.097Z,100713.78
2023-04-26T09:39:15.349Z,100711.22
2023-04-26T09:40:21.730Z,100702.78
2023-04-26T09:41:24.156Z,100703.59
2023-04-26T09:42:26.819Z,100703.06
2023-04-26T09:43:37.646Z,100703.91
2023-04-26T09:44:40.201Z,100706.25
2023-04-26T09:45:53.218Z,100702.38
2023-04-26T09:47:10.230Z,100703.31
2023-04-26T09:48:16.973Z,100710.47
2023-04-26T09:49:19.292Z,100705.69
2023-04-26T09:50:29.333Z,100706.88
2023-04-26T09:51:33.054Z,100706.13
2023-04-26T09:52:44.009Z,100708.94
2023-04-26T09:53:46.670Z,100709.50
2023-04-26T09:54:54.285Z,100708.53
2023-04-26T09:56:13.776Z,100711.06
2023-04-26T09:57:19.560Z,100697.13
2023-04-26T09:58:23.169Z,100698.50
2023-04-26T09:59:25.429Z,100702.19
2023-04-26T10:00:28.118Z,100703.50
2023-04-26T10:01:30.853Z,100700.78
2023-04-26T10:02:39.772Z,100697.56
2023-04-26T10:03:43.163Z,100701.66
2023-04-26T10:04:47.923Z,100709.22
2023-04-26T10:05:50.925Z,100705.50
2023-04-26T10:06:53.562Z,100707.84
2023-04-26T10:07:55.819Z,100698.91
2023-04-26T10:08:58.307Z,100700.63
2023-04-26T10:10:02.230Z,100700.31
2023-04-26T10:11:07.586Z,100702.00
2023-04-26T10:12:12.284Z,100697.03
2023-04-26T10:13:16.833Z,100700.34
2023-04-26T10:14:19.175Z,100707.44
2023-04-26T10:15:21.635Z,100699.53
2023-04-26T10:16:24.238Z,100703.22
2023-04-26T10:17:26.793Z,100704.91
2023-04-26T10:18:29.948Z,100697.66
2023-04-26T10:19:34.555Z,100701.69
2023-04-26T10:20:42.521Z,100689.19
2023-04-26T10:21:47.107Z,100702.16
2023-04-26T10:22:55.652Z,100704.66
2023-04-26T10:24:00.304Z,100698.53
2023-04-26T10:25:02.703Z,100696.88
2023-04-26T10:26:05.472Z,100681.41
2023-04-26T10:27:08.618Z,100688.97
2023-04-26T10:28:11.043Z,100686.63
2023-04-26T10:29:13.441Z,100692.88
2023-04-26T10:30:24.841Z,100695.38
2023-04-26T10:32:01.923Z,100690.81
2023-04-26T10:33:04.710Z,100699.34
2023-04-26T10:34:20.019Z,100693.88
2023-04-26T10:35:27.071Z,100687.13
2023-04-26T10:36:29.557Z,100685.28
2023-04-26T10:37:31.956Z,100692.88
2023-04-26T10:39:18.418Z,100690.28
2023-04-26T10:40:26.204Z,100686.78
2023-04-26T10:41:35.256Z,100688.47
2023-04-26T10:42:39.261Z,100695.69
2023-04-26T10:43:43.720Z,100699.69
2023-04-26T10:44:45.960Z,100696.75
2023-04-26T10:45:49.505Z,100685.72
2023-04-26T10:46:52.842Z,100689.78
2023-04-26T10:48:18.977Z,100695.69
2023-04-26T10:49:26.283Z,100686.31
2023-04-26T10:50:29.476Z,100686.59
2023-04-26T10:51:32.027Z,100692.63
2023-04-26T10:52:35.689Z,100700.31
2023-04-26T10:53:47.308Z,100691.94
2023-04-26T10:54:52.322Z,100690.09
2023-04-26T10:55:54.906Z,100671.44
2023-04-26T10:56:58.065Z,100684.97
2023-04-26T10:58:01.418Z,100690.63
2023-04-26T10:59:30.662Z,100689.63
2023-04-26T11:00:33.287Z,100697.25
2023-04-26T11:01:36.148Z,100695.84
2023-04-26T11:03:06.531Z,100697.34
2023-04-26T11:04:10.776Z,100696.38
2023-04-26T11:05:35.424Z,100689.97
2023-04-26T11:06:54.371Z,100694.00
2023-04-26T11:08:19.515Z,100688.88
2023-04-26T11:09:42.445Z,100681.00
2023-04-26T11:10:51.537Z,100681.00
2023-04-26T11:11:54.014Z,100696.81
2023-04-26T11:13:01.690Z,100691.16
2023-04-26T11:14:04.101Z,100697.31
2023-04-26T11:15:07.271Z,100691.53
2023-04-26T11:16:16.292Z,100695.59
2023-04-26T11:17:20.049Z,100702.16
2023-04-26T11:18:22.511Z,100702.47
2023-04-26T11:19:26.531Z,100693.75
2023-04-26T11:20:31.528Z,100701.69
2023-04-26T11:21:34.622Z,100695.31
2023-04-26T11:22:40.776Z,100691.59
2023-04-26T11:23:43.432Z,100702.56
2023-04-26T11:24:46.004Z,100698.41
2023-04-26T11:25:48.574Z,100709.63
2023-04-26T11:26:54.212Z,100703.00
2023-04-26T11:28:01.867Z,100699.84
2023-04-26T11:29:07.385Z,100699.41
2023-04-26T11:30:10.434Z,100696.75
2023-04-26T11:31:14.487Z,100688.84
2023-04-26T11:32:16.791Z,100697.22
2023-04-26T11:33:23.015Z,100684.25
2023-04-26T11:34:41.934Z,100690.25
2023-04-26T11:36:09.215Z,100697.06
2023-04-26T11:37:11.721Z,100691.28
2023-04-26T11:38:15.464Z,100687.22
2023-04-26T11:39:20.841Z,100692.91
2023-04-26T11:40:23.516Z,100684.75
2023-04-26T11:41:25.873Z,100700.91
2023-04-26T11:42:28.465Z,100705.78
2023-04-26T11:43:37.999Z,100690.81
2023-04-26T11:44:41.354Z,100706.16
2023-04-26T11:45:44.017Z,100704.88
2023-04-26T11:46:49.076Z,100700.69
2023-04-26T11:47:51.704Z,100705.16
2023-04-26T11:48:54.397Z,100704.09
2023-04-26T11:49:57.129Z,100715.84
2023-04-26T11:51:00.582Z,100709.19
2023-04-26T11:52:04.924Z,100719.25
2023-04-26T11:53:08.908Z,100719.31
2023-04-26T11:54:11.499Z,100712.50
2023-04-26T11:55:14.891Z,100714.53
2023-04-26T11:56:22.040Z,100711.38
2023-04-26T11:57:24.318Z,100719.88
2023-04-26T11:58:26.626Z,100707.19
2023-04-26T11:59:30.832Z,100709.63
2023-04-26T12:00:33.104Z,100707.81
2023-04-26T12:01:35.526Z,100707.69
2023-04-26T12:02:38.293Z,100713.16
2023-04-26T12:03:40.945Z,100715.31
2023-04-26T12:04:44.678Z,100708.59
2023-04-26T12:05:54.992Z,100716.88
2023-04-26T12:06:58.515Z,100717.44
2023-04-26T12:08:01.074Z,100716.88
2023-04-26T12:09:06.124Z,100725.53
2023-04-26T12:10:18.203Z,100720.38
2023-04-26T12:11:21.249Z,100728.28
2023-04-26T12:12:23.578Z,100730.91
2023-04-26T12:13:26.099Z,100727.22
2023-04-26T12:14:36.232Z,100731.13
2023-04-26T12:15:40.307Z,100732.38
2023-04-26T12:16:46.773Z,100738.38
2023-04-26T12:18:13.571Z,100740.38